Aeroporto :
LOGIN :

Iscrizione | Disclaimer

   EN    FR    IT 

 










Sommario :    VFR   VFR Marginale   IFR   IFR Intensivo   IFR Molto Intensivo
Visibilità : 
Base nubi : 
>= 8 km
>= 3000ft
5 / 8 km
1000 / 3000 ft
1500m / 5 km
500 / 1000 ft
800 / 1500m
200 / 500 ft
< 800m
< 200 ft
Simboli :   Temporali  Nebbia  Neve Forte  Precipitazioni Forti  Vento > 20 kt
SIGMETs :   Varie  Temporali  Ghiacco  Turbolenza  Onda orograficha  Ceneri Vulcaniche






- Altitudine del aeroporto : 1558 ft
- Codice IATA : IOA


LGIO - Ioannina

ULTIMO METAR :
  • 151050Z VRB03KT 9999 SCT035 27/15 Q1016

METARs OBSOLETI :
  • 151020Z VRB03KT 9999 SCT035 28/15 Q1016
  • 150950Z 11005KT 9999 FEW030 26/14 Q1016
  • 150920Z 11005KT 9999 FEW035 27/14 Q1016
  • 150850Z 11005KT 9999 FEW030 26/14 Q1016

TAF TAF LGIO
Valido dal 15 a 09 ore il 15 a 18 ore UTC


150800Z 1509/1518 VRB03KT 9999 SCT020
PROB40
TEMPO 1510/1517 7000 SHRA FEW018TCU SCT020 BKN080



MetMap, La meteo Aeronautica in un colpo d'occhio ! - Copyright ORBIFLY Dicembre 2007 - Disclaimer

ORBIFLY MET'MAP TEAM :

Programmazione e sviluppo : Alexandra Zaïnal
Concezione : Baudouin d'Aumeries
Aiuto per la programmazione : Marc-Olivier Méhu
Supporto tecnico e logistico : Manuel Goepfert
Aiuto per la traduzione : Arnaldo La Scala

Contatto : metmap@orbifly.com




FONTI E CREDITI :

   NOAA